JBU8609 KBHM-KFLL
Flight info
| Callsign | JBU8609 |
|---|---|
| Flight time | 1h 31m |
| Altitude | 35000 |
| Route | GUMMP ACORI TEEKY4 |
| Aircraft | A320/M-SDE3FGHIRWY/LB1 |
Departure
| Time | 2026-04-23 19:37 |
|---|---|
| Airport | Birmingham-Shuttlesworth International Airport (KBHM) |
Arrival
| Time | 2026-04-23 21:08 |
|---|---|
| Airport | Fort Lauderdale Hollywood International Airport (KFLL) |
| Time | Latitude | Longitude | Altitude | Speed | Heading |
|---|---|---|---|---|---|
| 2026-04-23 18:56 | 33.56169 | -86.75411 | 608 ft | 0 kts | 167° |
| 2026-04-23 19:25 | 33.56188 | -86.75417 | 622 ft | 3 kts | 162° |
| 2026-04-23 19:26 | 33.56230 | -86.75438 | 619 ft | 3 kts | 158° |
| 2026-04-23 19:26 | 33.56249 | -86.75444 | 622 ft | 3 kts | 199° |
| 2026-04-23 19:27 | 33.56258 | -86.75436 | 618 ft | 0 kts | 236° |
| 2026-04-23 19:30 | 33.56237 | -86.75474 | 618 ft | 5 kts | 236° |
| 2026-04-23 19:31 | 33.56213 | -86.75516 | 621 ft | 7 kts | 236° |
| 2026-04-23 19:31 | 33.56182 | -86.75571 | 613 ft | 9 kts | 236° |
| 2026-04-23 19:31 | 33.56156 | -86.75642 | 612 ft | 10 kts | 271° |
| 2026-04-23 19:31 | 33.56182 | -86.75719 | 612 ft | 10 kts | 266° |
| 2026-04-23 19:32 | 33.56146 | -86.75797 | 616 ft | 12 kts | 234° |
| 2026-04-23 19:32 | 33.56095 | -86.75883 | 613 ft | 13 kts | 235° |
| 2026-04-23 19:32 | 33.56039 | -86.75981 | 619 ft | 15 kts | 235° |
| 2026-04-23 19:32 | 33.55975 | -86.76091 | 611 ft | 17 kts | 235° |
| 2026-04-23 19:33 | 33.55911 | -86.76203 | 612 ft | 16 kts | 235° |
| 2026-04-23 19:33 | 33.55853 | -86.76304 | 612 ft | 14 kts | 235° |
| 2026-04-23 19:33 | 33.55729 | -86.76520 | 608 ft | 17 kts | 235° |
| 2026-04-23 19:34 | 33.55657 | -86.76644 | 610 ft | 19 kts | 235° |
| 2026-04-23 19:34 | 33.55585 | -86.76768 | 615 ft | 17 kts | 235° |
| 2026-04-23 19:34 | 33.55460 | -86.76982 | 612 ft | 14 kts | 236° |
| 2026-04-23 19:35 | 33.55431 | -86.77087 | 613 ft | 14 kts | 297° |
| 2026-04-23 19:35 | 33.55502 | -86.77108 | 611 ft | 10 kts | 30° |
| 2026-04-23 19:35 | 33.55523 | -86.77078 | 612 ft | 0 kts | 56° |
| 2026-04-23 19:36 | 33.55670 | -86.76822 | 609 ft | 71 kts | 55° |
| 2026-04-23 19:36 | 33.56063 | -86.76140 | 617 ft | 125 kts | 55° |
| 2026-04-23 19:36 | 33.56635 | -86.75147 | 609 ft | 163 kts | 56° |
| 2026-04-23 19:37 | 33.57298 | -86.73952 | 988 ft | 167 kts | 58° |
| 2026-04-23 19:37 | 33.57946 | -86.72847 | 1696 ft | 161 kts | 58° |
| 2026-04-23 19:37 | 33.58647 | -86.71733 | 2087 ft | 177 kts | 56° |
| 2026-04-23 19:37 | 33.59434 | -86.70481 | 2298 ft | 199 kts | 57° |
| 2026-04-23 19:38 | 33.60313 | -86.69069 | 2523 ft | 224 kts | 57° |
| 2026-04-23 19:38 | 33.61038 | -86.67339 | 2853 ft | 243 kts | 82° |
| 2026-04-23 19:38 | 33.60913 | -86.65291 | 3254 ft | 254 kts | 116° |
| 2026-04-23 19:38 | 33.59839 | -86.63636 | 3987 ft | 255 kts | 148° |
| 2026-04-23 19:39 | 33.58187 | -86.62944 | 4845 ft | 256 kts | 176° |
| 2026-04-23 19:39 | 33.56391 | -86.62883 | 5654 ft | 260 kts | 179° |
| 2026-04-23 19:39 | 33.54567 | -86.62852 | 6503 ft | 264 kts | 179° |
| 2026-04-23 19:39 | 33.52721 | -86.62822 | 7335 ft | 267 kts | 179° |
| 2026-04-23 19:40 | 33.50858 | -86.62787 | 8153 ft | 269 kts | 179° |
| 2026-04-23 19:40 | 33.48970 | -86.62748 | 8938 ft | 273 kts | 179° |
| 2026-04-23 19:40 | 33.47079 | -86.62708 | 9676 ft | 278 kts | 180° |
| 2026-04-23 19:40 | 33.45131 | -86.62668 | 10345 ft | 285 kts | 180° |
| 2026-04-23 19:41 | 33.43068 | -86.62627 | 10538 ft | 308 kts | 180° |
| 2026-04-23 19:41 | 33.40854 | -86.62582 | 10802 ft | 326 kts | 180° |
| 2026-04-23 19:41 | 33.38563 | -86.62530 | 11367 ft | 332 kts | 180° |
| 2026-04-23 19:41 | 33.36240 | -86.62475 | 11994 ft | 337 kts | 179° |
| 2026-04-23 19:42 | 33.33875 | -86.62422 | 12576 ft | 343 kts | 179° |
| 2026-04-23 19:42 | 33.31473 | -86.62368 | 13179 ft | 348 kts | 179° |
| 2026-04-23 19:42 | 33.29037 | -86.62315 | 13787 ft | 353 kts | 179° |
| 2026-04-23 19:42 | 33.26560 | -86.62262 | 14323 ft | 358 kts | 180° |
| 2026-04-23 19:43 | 33.24098 | -86.62210 | 14868 ft | 362 kts | 180° |
| 2026-04-23 19:43 | 33.21484 | -86.62153 | 15448 ft | 366 kts | 180° |
| 2026-04-23 19:43 | 33.18962 | -86.62097 | 15998 ft | 369 kts | 181° |
| 2026-04-23 19:43 | 33.16380 | -86.62041 | 16559 ft | 372 kts | 181° |
| 2026-04-23 19:44 | 33.13782 | -86.61986 | 17119 ft | 375 kts | 181° |
| 2026-04-23 19:44 | 33.11158 | -86.61931 | 17685 ft | 379 kts | 181° |
| 2026-04-23 19:44 | 33.08517 | -86.61667 | 18232 ft | 385 kts | 172° |
| 2026-04-23 19:44 | 33.05919 | -86.60803 | 18734 ft | 391 kts | 160° |
| 2026-04-23 19:45 | 33.03447 | -86.59407 | 19233 ft | 395 kts | 155° |
| 2026-04-23 19:45 | 33.00983 | -86.57933 | 19761 ft | 398 kts | 155° |
| 2026-04-23 19:45 | 32.98491 | -86.56457 | 20312 ft | 401 kts | 155° |
| 2026-04-23 19:45 | 32.95986 | -86.54981 | 20834 ft | 403 kts | 155° |
| 2026-04-23 19:46 | 32.93463 | -86.53493 | 21365 ft | 406 kts | 155° |
| 2026-04-23 19:46 | 32.90916 | -86.51992 | 21880 ft | 409 kts | 155° |
| 2026-04-23 19:46 | 32.88362 | -86.50486 | 22379 ft | 411 kts | 155° |
| 2026-04-23 19:46 | 32.85788 | -86.48966 | 22868 ft | 414 kts | 155° |
| 2026-04-23 19:47 | 32.84077 | -86.47954 | 23189 ft | 416 kts | 155° |
| 2026-04-23 19:47 | 32.80588 | -86.45893 | 23780 ft | 420 kts | 155° |
| 2026-04-23 19:47 | 32.77999 | -86.44365 | 24173 ft | 422 kts | 155° |
| 2026-04-23 19:47 | 32.75360 | -86.42810 | 24553 ft | 425 kts | 155° |
| 2026-04-23 19:48 | 32.72700 | -86.41246 | 24919 ft | 428 kts | 155° |
| 2026-04-23 19:48 | 32.70027 | -86.39676 | 25288 ft | 430 kts | 155° |
| 2026-04-23 19:48 | 32.67339 | -86.38097 | 25647 ft | 432 kts | 155° |
| 2026-04-23 19:48 | 32.64635 | -86.36512 | 25993 ft | 435 kts | 155° |
| 2026-04-23 19:49 | 32.61915 | -86.34918 | 26333 ft | 437 kts | 155° |
| 2026-04-23 19:49 | 32.59180 | -86.33317 | 26689 ft | 439 kts | 154° |
| 2026-04-23 19:49 | 32.56431 | -86.31707 | 27024 ft | 442 kts | 154° |
| 2026-04-23 19:49 | 32.53668 | -86.30090 | 27353 ft | 444 kts | 154° |
| 2026-04-23 19:50 | 32.50891 | -86.28465 | 27694 ft | 447 kts | 154° |
| 2026-04-23 19:50 | 32.48099 | -86.26832 | 28052 ft | 448 kts | 154° |
| 2026-04-23 19:50 | 32.45297 | -86.25193 | 28374 ft | 451 kts | 154° |
| 2026-04-23 19:50 | 32.42472 | -86.23543 | 28697 ft | 454 kts | 154° |
| 2026-04-23 19:51 | 32.39634 | -86.21891 | 29044 ft | 456 kts | 154° |
| 2026-04-23 19:51 | 32.36781 | -86.20231 | 29379 ft | 458 kts | 154° |
| 2026-04-23 19:51 | 32.33918 | -86.18563 | 29678 ft | 460 kts | 154° |
| 2026-04-23 19:51 | 32.31037 | -86.16887 | 30008 ft | 462 kts | 154° |
| 2026-04-23 19:52 | 32.29125 | -86.15775 | 30227 ft | 463 kts | 154° |
| 2026-04-23 19:52 | 32.25259 | -86.13529 | 30705 ft | 463 kts | 154° |
| 2026-04-23 19:52 | 32.22373 | -86.11852 | 31072 ft | 462 kts | 154° |
| 2026-04-23 19:52 | 32.19492 | -86.10178 | 31484 ft | 461 kts | 154° |
| 2026-04-23 19:53 | 32.16616 | -86.08508 | 31871 ft | 460 kts | 154° |
| 2026-04-23 19:53 | 32.13739 | -86.06840 | 32204 ft | 461 kts | 154° |
| 2026-04-23 19:53 | 32.10869 | -86.05173 | 32593 ft | 460 kts | 153° |
| 2026-04-23 19:53 | 32.08001 | -86.03505 | 32990 ft | 459 kts | 153° |
| 2026-04-23 19:54 | 32.05138 | -86.01846 | 33349 ft | 459 kts | 153° |
| 2026-04-23 19:54 | 32.02269 | -86.00189 | 33733 ft | 458 kts | 153° |
| 2026-04-23 19:54 | 31.99411 | -85.98541 | 34167 ft | 457 kts | 153° |
| 2026-04-23 19:54 | 31.96563 | -85.96898 | 34490 ft | 456 kts | 153° |
| 2026-04-23 19:55 | 31.93717 | -85.95257 | 34781 ft | 456 kts | 153° |
| 2026-04-23 19:55 | 31.90867 | -85.93616 | 35045 ft | 455 kts | 153° |
| 2026-04-23 19:55 | 31.88013 | -85.91976 | 35110 ft | 456 kts | 153° |
| 2026-04-23 19:56 | 31.82284 | -85.88690 | 35118 ft | 458 kts | 153° |
| 2026-04-23 19:56 | 31.76853 | -85.84846 | 35110 ft | 457 kts | 139° |
| 2026-04-23 19:57 | 31.72442 | -85.79472 | 35100 ft | 457 kts | 131° |
| 2026-04-23 19:57 | 31.68915 | -85.74873 | 35097 ft | 456 kts | 131° |
| 2026-04-23 19:58 | 31.63967 | -85.68461 | 35082 ft | 456 kts | 131° |
| 2026-04-23 19:58 | 31.59707 | -85.62939 | 35092 ft | 456 kts | 131° |
| 2026-04-23 19:59 | 31.55445 | -85.57427 | 35091 ft | 456 kts | 131° |
| 2026-04-23 19:59 | 31.51183 | -85.51916 | 35087 ft | 456 kts | 131° |
| 2026-04-23 20:00 | 31.46923 | -85.46403 | 35135 ft | 456 kts | 131° |
| 2026-04-23 20:00 | 31.42658 | -85.40896 | 35154 ft | 457 kts | 131° |
| 2026-04-23 20:01 | 31.38385 | -85.35397 | 35132 ft | 456 kts | 131° |
| 2026-04-23 20:01 | 31.34106 | -85.29910 | 35133 ft | 456 kts | 131° |
| 2026-04-23 20:02 | 31.29836 | -85.24444 | 35126 ft | 455 kts | 131° |
| 2026-04-23 20:02 | 31.25595 | -85.19005 | 35124 ft | 455 kts | 131° |
| 2026-04-23 20:03 | 31.21336 | -85.13548 | 35124 ft | 455 kts | 131° |
| 2026-04-23 20:03 | 31.17069 | -85.08090 | 35110 ft | 455 kts | 131° |
| 2026-04-23 20:04 | 31.12799 | -85.02640 | 35118 ft | 455 kts | 131° |
| 2026-04-23 20:04 | 31.08523 | -84.97192 | 35104 ft | 455 kts | 131° |
| 2026-04-23 20:05 | 31.04968 | -84.92660 | 35102 ft | 455 kts | 131° |
| 2026-04-23 20:05 | 31.00685 | -84.87218 | 35105 ft | 455 kts | 131° |
| 2026-04-23 20:06 | 30.96400 | -84.81788 | 35100 ft | 455 kts | 132° |
| 2026-04-23 20:06 | 30.92115 | -84.76360 | 35106 ft | 455 kts | 132° |
| 2026-04-23 20:07 | 30.87836 | -84.70940 | 35110 ft | 454 kts | 132° |
| 2026-04-23 20:07 | 30.83557 | -84.65529 | 35106 ft | 454 kts | 132° |
| 2026-04-23 20:08 | 30.79274 | -84.60127 | 35103 ft | 454 kts | 132° |
| 2026-04-23 20:08 | 30.74993 | -84.54726 | 35097 ft | 454 kts | 131° |
| 2026-04-23 20:09 | 30.70701 | -84.49333 | 35094 ft | 454 kts | 132° |
| 2026-04-23 20:09 | 30.66408 | -84.43949 | 35100 ft | 454 kts | 132° |
| 2026-04-23 20:10 | 30.62119 | -84.38561 | 35101 ft | 454 kts | 132° |
| 2026-04-23 20:10 | 30.57836 | -84.33181 | 35101 ft | 454 kts | 132° |
| 2026-04-23 20:11 | 30.53545 | -84.27810 | 35102 ft | 454 kts | 132° |
| 2026-04-23 20:11 | 30.49256 | -84.22449 | 35099 ft | 454 kts | 132° |
| 2026-04-23 20:12 | 30.44959 | -84.17089 | 35098 ft | 454 kts | 132° |
| 2026-04-23 20:12 | 30.40657 | -84.11736 | 35096 ft | 454 kts | 132° |
| 2026-04-23 20:13 | 30.36008 | -84.06804 | 35095 ft | 455 kts | 146° |
| 2026-04-23 20:13 | 30.30554 | -84.03110 | 35102 ft | 454 kts | 150° |
| 2026-04-23 20:14 | 30.25068 | -83.99471 | 35097 ft | 454 kts | 150° |
| 2026-04-23 20:14 | 30.19626 | -83.95861 | 35109 ft | 453 kts | 150° |
| 2026-04-23 20:15 | 30.14156 | -83.92233 | 35110 ft | 453 kts | 150° |
| 2026-04-23 20:15 | 30.08691 | -83.88621 | 35112 ft | 453 kts | 150° |
| 2026-04-23 20:16 | 30.03223 | -83.85014 | 35106 ft | 452 kts | 150° |
| 2026-04-23 20:16 | 29.97759 | -83.81412 | 35105 ft | 452 kts | 150° |
| 2026-04-23 20:17 | 29.92296 | -83.77815 | 35108 ft | 452 kts | 150° |
| 2026-04-23 20:17 | 29.86839 | -83.74230 | 35113 ft | 451 kts | 150° |
| 2026-04-23 20:18 | 29.81401 | -83.70649 | 35113 ft | 450 kts | 150° |
| 2026-04-23 20:18 | 29.75962 | -83.67074 | 35112 ft | 450 kts | 150° |
| 2026-04-23 20:19 | 29.70524 | -83.63513 | 35111 ft | 450 kts | 150° |
| 2026-04-23 20:19 | 29.65088 | -83.59962 | 35115 ft | 449 kts | 152° |
| 2026-04-23 20:20 | 29.59662 | -83.56410 | 35116 ft | 448 kts | 152° |
| 2026-04-23 20:20 | 29.54244 | -83.52865 | 35107 ft | 448 kts | 152° |
| 2026-04-23 20:21 | 29.48829 | -83.49345 | 35108 ft | 447 kts | 152° |
| 2026-04-23 20:21 | 29.43414 | -83.45825 | 35097 ft | 447 kts | 152° |
| 2026-04-23 20:22 | 29.38010 | -83.42302 | 35091 ft | 447 kts | 152° |
| 2026-04-23 20:22 | 29.32598 | -83.38788 | 35076 ft | 448 kts | 155° |
| 2026-04-23 20:23 | 29.27165 | -83.35268 | 35070 ft | 449 kts | 155° |
| 2026-04-23 20:23 | 29.21721 | -83.31723 | 35071 ft | 450 kts | 154° |
| 2026-04-23 20:24 | 29.16286 | -83.28138 | 35074 ft | 451 kts | 154° |
| 2026-04-23 20:24 | 29.10839 | -83.24549 | 35081 ft | 452 kts | 154° |
| 2026-04-23 20:25 | 29.05385 | -83.20973 | 35065 ft | 452 kts | 157° |
| 2026-04-23 20:25 | 28.99913 | -83.17395 | 35064 ft | 453 kts | 158° |
| 2026-04-23 20:26 | 28.94434 | -83.13811 | 35053 ft | 455 kts | 157° |
| 2026-04-23 20:26 | 28.88930 | -83.10206 | 35055 ft | 457 kts | 157° |
| 2026-04-23 20:27 | 28.83412 | -83.06605 | 35060 ft | 457 kts | 157° |
| 2026-04-23 20:27 | 28.77882 | -83.03005 | 35066 ft | 458 kts | 157° |
| 2026-04-23 20:28 | 28.72350 | -82.99403 | 35079 ft | 458 kts | 157° |
| 2026-04-23 20:28 | 28.66819 | -82.95810 | 35085 ft | 458 kts | 157° |
| 2026-04-23 20:29 | 28.61287 | -82.92221 | 35085 ft | 457 kts | 157° |
| 2026-04-23 20:29 | 28.55763 | -82.88641 | 35085 ft | 457 kts | 157° |
| 2026-04-23 20:30 | 28.50282 | -82.85089 | 35087 ft | 457 kts | 157° |
| 2026-04-23 20:30 | 28.41989 | -82.79725 | 35077 ft | 457 kts | 156° |
| 2026-04-23 20:31 | 28.36461 | -82.76154 | 35070 ft | 458 kts | 156° |
| 2026-04-23 20:31 | 28.30920 | -82.72577 | 35071 ft | 458 kts | 156° |
| 2026-04-23 20:32 | 28.25370 | -82.69003 | 35081 ft | 459 kts | 156° |
| 2026-04-23 20:32 | 28.19811 | -82.65428 | 35086 ft | 459 kts | 156° |
| 2026-04-23 20:33 | 28.14248 | -82.61848 | 35081 ft | 460 kts | 156° |
| 2026-04-23 20:33 | 28.08687 | -82.58271 | 35082 ft | 460 kts | 156° |
| 2026-04-23 20:34 | 28.03115 | -82.54704 | 35087 ft | 460 kts | 156° |
| 2026-04-23 20:34 | 27.97365 | -82.51748 | 35087 ft | 449 kts | 169° |
| 2026-04-23 20:35 | 27.91403 | -82.49647 | 35076 ft | 449 kts | 169° |
| 2026-04-23 20:35 | 27.85435 | -82.47520 | 35067 ft | 450 kts | 169° |
| 2026-04-23 20:36 | 27.79474 | -82.45400 | 35076 ft | 448 kts | 169° |
| 2026-04-23 20:36 | 27.73523 | -82.43300 | 35086 ft | 448 kts | 169° |
| 2026-04-23 20:37 | 27.67574 | -82.41200 | 35085 ft | 448 kts | 169° |
| 2026-04-23 20:37 | 27.61632 | -82.39098 | 35085 ft | 448 kts | 169° |
| 2026-04-23 20:38 | 27.55724 | -82.37013 | 35084 ft | 448 kts | 169° |
| 2026-04-23 20:38 | 27.49777 | -82.34917 | 35085 ft | 448 kts | 169° |
| 2026-04-23 20:39 | 27.43828 | -82.32818 | 35087 ft | 448 kts | 169° |
| 2026-04-23 20:39 | 27.37902 | -82.30615 | 35085 ft | 453 kts | 162° |
| 2026-04-23 20:40 | 27.32286 | -82.27215 | 34867 ft | 462 kts | 156° |
| 2026-04-23 20:40 | 27.29489 | -82.25435 | 34624 ft | 461 kts | 156° |
| 2026-04-23 20:40 | 27.26703 | -82.23660 | 34387 ft | 460 kts | 156° |
| 2026-04-23 20:41 | 27.23923 | -82.21891 | 34138 ft | 458 kts | 156° |
| 2026-04-23 20:41 | 27.21159 | -82.20135 | 33883 ft | 456 kts | 156° |
| 2026-04-23 20:41 | 27.18403 | -82.18390 | 33605 ft | 454 kts | 156° |
| 2026-04-23 20:41 | 27.15656 | -82.16654 | 33344 ft | 452 kts | 156° |
| 2026-04-23 20:42 | 27.12922 | -82.14926 | 33092 ft | 450 kts | 156° |
| 2026-04-23 20:42 | 27.10199 | -82.13203 | 32830 ft | 448 kts | 156° |
| 2026-04-23 20:42 | 27.07488 | -82.11489 | 32574 ft | 447 kts | 156° |
| 2026-04-23 20:42 | 27.04788 | -82.09783 | 32321 ft | 445 kts | 156° |
| 2026-04-23 20:43 | 27.02097 | -82.08083 | 32072 ft | 443 kts | 156° |
| 2026-04-23 20:43 | 26.99424 | -82.06392 | 31696 ft | 439 kts | 156° |
| 2026-04-23 20:43 | 26.96822 | -82.04590 | 31173 ft | 442 kts | 149° |
| 2026-04-23 20:43 | 26.94471 | -82.02338 | 30650 ft | 447 kts | 139° |
| 2026-04-23 20:44 | 26.92337 | -81.99809 | 30150 ft | 446 kts | 138° |
| 2026-04-23 20:44 | 26.90214 | -81.97285 | 29585 ft | 444 kts | 138° |
| 2026-04-23 20:44 | 26.88102 | -81.94784 | 29069 ft | 440 kts | 137° |
| 2026-04-23 20:44 | 26.86002 | -81.92306 | 28572 ft | 437 kts | 137° |
| 2026-04-23 20:45 | 26.83917 | -81.89845 | 28068 ft | 434 kts | 137° |
| 2026-04-23 20:45 | 26.81844 | -81.87400 | 27570 ft | 431 kts | 137° |
| 2026-04-23 20:45 | 26.79781 | -81.84970 | 27074 ft | 429 kts | 137° |
| 2026-04-23 20:45 | 26.77726 | -81.82552 | 26575 ft | 427 kts | 137° |
| 2026-04-23 20:46 | 26.75700 | -81.80175 | 26012 ft | 418 kts | 137° |
| 2026-04-23 20:46 | 26.73710 | -81.77853 | 25605 ft | 410 kts | 137° |
| 2026-04-23 20:46 | 26.71726 | -81.75550 | 25131 ft | 411 kts | 137° |
| 2026-04-23 20:46 | 26.69740 | -81.73245 | 24693 ft | 411 kts | 136° |
| 2026-04-23 20:47 | 26.67777 | -81.70967 | 24214 ft | 403 kts | 136° |
| 2026-04-23 20:47 | 26.65844 | -81.68726 | 23739 ft | 399 kts | 136° |
| 2026-04-23 20:47 | 26.63926 | -81.66502 | 23229 ft | 396 kts | 136° |
| 2026-04-23 20:47 | 26.62177 | -81.64177 | 22758 ft | 397 kts | 128° |
| 2026-04-23 20:48 | 26.60524 | -81.61713 | 22299 ft | 395 kts | 128° |
| 2026-04-23 20:48 | 26.58878 | -81.59261 | 21814 ft | 394 kts | 128° |
| 2026-04-23 20:48 | 26.57246 | -81.56828 | 21351 ft | 389 kts | 128° |
| 2026-04-23 20:48 | 26.55633 | -81.54424 | 20896 ft | 386 kts | 129° |
| 2026-04-23 20:49 | 26.54022 | -81.52029 | 20431 ft | 385 kts | 129° |
| 2026-04-23 20:49 | 26.52416 | -81.49648 | 19978 ft | 383 kts | 129° |
| 2026-04-23 20:49 | 26.50825 | -81.47293 | 19524 ft | 379 kts | 129° |
| 2026-04-23 20:49 | 26.49242 | -81.44949 | 19068 ft | 378 kts | 129° |
| 2026-04-23 20:50 | 26.47665 | -81.42613 | 18621 ft | 374 kts | 129° |
| 2026-04-23 20:50 | 26.46109 | -81.40305 | 18149 ft | 371 kts | 129° |
| 2026-04-23 20:50 | 26.44566 | -81.38018 | 17611 ft | 367 kts | 129° |
| 2026-04-23 20:50 | 26.43028 | -81.35744 | 17177 ft | 366 kts | 129° |
| 2026-04-23 20:51 | 26.41500 | -81.33485 | 16749 ft | 364 kts | 129° |
| 2026-04-23 20:51 | 26.39951 | -81.31265 | 16313 ft | 362 kts | 130° |
| 2026-04-23 20:51 | 26.38359 | -81.29099 | 15878 ft | 360 kts | 131° |
| 2026-04-23 20:51 | 26.36753 | -81.26977 | 15449 ft | 356 kts | 132° |
| 2026-04-23 20:52 | 26.35156 | -81.24888 | 15036 ft | 353 kts | 132° |
| 2026-04-23 20:52 | 26.34101 | -81.23507 | 14755 ft | 353 kts | 132° |
| 2026-04-23 20:52 | 26.32522 | -81.21429 | 14329 ft | 349 kts | 131° |
| 2026-04-23 20:52 | 26.30967 | -81.19372 | 13927 ft | 346 kts | 131° |
| 2026-04-23 20:53 | 26.29419 | -81.17315 | 13478 ft | 346 kts | 131° |
| 2026-04-23 20:53 | 26.27884 | -81.15271 | 13061 ft | 341 kts | 131° |
| 2026-04-23 20:53 | 26.26367 | -81.13259 | 12659 ft | 338 kts | 131° |
| 2026-04-23 20:53 | 26.24858 | -81.11267 | 12256 ft | 335 kts | 131° |
| 2026-04-23 20:54 | 26.23369 | -81.09308 | 11902 ft | 327 kts | 131° |
| 2026-04-23 20:54 | 26.21909 | -81.07388 | 11464 ft | 323 kts | 131° |
| 2026-04-23 20:54 | 26.20456 | -81.05478 | 11085 ft | 323 kts | 131° |
| 2026-04-23 20:54 | 26.19003 | -81.03570 | 10699 ft | 323 kts | 131° |
| 2026-04-23 20:55 | 26.17557 | -81.01670 | 10430 ft | 317 kts | 131° |
| 2026-04-23 20:55 | 26.16165 | -80.99844 | 10169 ft | 304 kts | 130° |
| 2026-04-23 20:55 | 26.15006 | -80.97886 | 10015 ft | 305 kts | 115° |
| 2026-04-23 20:55 | 26.14310 | -80.95662 | 9634 ft | 307 kts | 101° |
| 2026-04-23 20:56 | 26.13936 | -80.93342 | 9243 ft | 301 kts | 99° |
| 2026-04-23 20:56 | 26.13570 | -80.91077 | 8879 ft | 294 kts | 100° |
| 2026-04-23 20:56 | 26.13206 | -80.88861 | 8532 ft | 288 kts | 100° |
| 2026-04-23 20:56 | 26.12845 | -80.86693 | 8184 ft | 285 kts | 100° |
| 2026-04-23 20:57 | 26.12484 | -80.84526 | 7834 ft | 285 kts | 100° |
| 2026-04-23 20:57 | 26.12122 | -80.82356 | 7484 ft | 285 kts | 101° |
| 2026-04-23 20:57 | 26.11767 | -80.80223 | 7137 ft | 276 kts | 101° |
| 2026-04-23 20:57 | 26.11436 | -80.78156 | 6888 ft | 264 kts | 99° |
| 2026-04-23 20:58 | 26.11152 | -80.76156 | 6761 ft | 261 kts | 99° |
| 2026-04-23 20:58 | 26.10887 | -80.74187 | 6628 ft | 260 kts | 99° |
| 2026-04-23 20:58 | 26.10622 | -80.72208 | 6480 ft | 258 kts | 99° |
| 2026-04-23 20:58 | 26.10358 | -80.70243 | 6332 ft | 256 kts | 99° |
| 2026-04-23 20:59 | 26.10090 | -80.68285 | 6186 ft | 255 kts | 99° |
| 2026-04-23 20:59 | 26.09817 | -80.66315 | 6040 ft | 254 kts | 99° |
| 2026-04-23 20:59 | 26.09555 | -80.64426 | 5900 ft | 246 kts | 99° |
| 2026-04-23 20:59 | 26.09300 | -80.62579 | 5766 ft | 237 kts | 99° |
| 2026-04-23 21:00 | 26.09053 | -80.60795 | 5640 ft | 230 kts | 99° |
| 2026-04-23 21:00 | 26.08810 | -80.59047 | 5516 ft | 228 kts | 99° |
| 2026-04-23 21:00 | 26.08568 | -80.57315 | 5381 ft | 226 kts | 100° |
| 2026-04-23 21:00 | 26.08326 | -80.55596 | 5260 ft | 225 kts | 101° |
| 2026-04-23 21:01 | 26.07990 | -80.53906 | 5137 ft | 224 kts | 99° |
| 2026-04-23 21:01 | 26.07855 | -80.52185 | 5011 ft | 222 kts | 92° |
| 2026-04-23 21:01 | 26.07835 | -80.50474 | 4873 ft | 221 kts | 91° |
| 2026-04-23 21:01 | 26.07832 | -80.48779 | 4738 ft | 218 kts | 91° |
| 2026-04-23 21:02 | 26.07828 | -80.47099 | 4604 ft | 216 kts | 91° |
| 2026-04-23 21:02 | 26.07822 | -80.45423 | 4477 ft | 217 kts | 91° |
| 2026-04-23 21:02 | 26.07816 | -80.43756 | 4351 ft | 212 kts | 92° |
| 2026-04-23 21:02 | 26.07811 | -80.42169 | 4277 ft | 198 kts | 91° |
| 2026-04-23 21:03 | 26.07806 | -80.40669 | 4151 ft | 190 kts | 92° |
| 2026-04-23 21:03 | 26.07800 | -80.39219 | 3922 ft | 184 kts | 91° |
| 2026-04-23 21:03 | 26.07794 | -80.37810 | 3699 ft | 180 kts | 92° |
| 2026-04-23 21:03 | 26.07789 | -80.36430 | 3462 ft | 177 kts | 92° |
| 2026-04-23 21:04 | 26.07783 | -80.35074 | 3234 ft | 174 kts | 92° |
| 2026-04-23 21:04 | 26.07778 | -80.33740 | 3001 ft | 168 kts | 92° |
| 2026-04-23 21:04 | 26.07772 | -80.32471 | 2779 ft | 162 kts | 92° |
| 2026-04-23 21:04 | 26.07767 | -80.31237 | 2583 ft | 158 kts | 92° |
| 2026-04-23 21:05 | 26.07761 | -80.30032 | 2379 ft | 153 kts | 92° |
| 2026-04-23 21:05 | 26.07756 | -80.28858 | 2186 ft | 150 kts | 92° |
| 2026-04-23 21:05 | 26.07750 | -80.27681 | 1982 ft | 153 kts | 91° |
| 2026-04-23 21:05 | 26.07744 | -80.26491 | 1770 ft | 155 kts | 91° |
| 2026-04-23 21:06 | 26.07739 | -80.25315 | 1567 ft | 153 kts | 92° |
| 2026-04-23 21:06 | 26.07733 | -80.24142 | 1365 ft | 151 kts | 92° |
| 2026-04-23 21:06 | 26.07727 | -80.22971 | 1169 ft | 151 kts | 92° |
| 2026-04-23 21:06 | 26.07722 | -80.21813 | 977 ft | 150 kts | 92° |
| 2026-04-23 21:07 | 26.07716 | -80.20656 | 766 ft | 152 kts | 91° |
| 2026-04-23 21:07 | 26.07709 | -80.19478 | 573 ft | 152 kts | 91° |
| 2026-04-23 21:07 | 26.07703 | -80.18301 | 373 ft | 151 kts | 92° |
| 2026-04-23 21:07 | 26.07697 | -80.17125 | 180 ft | 151 kts | 92° |
| 2026-04-23 21:08 | 26.07691 | -80.15979 | 20 ft | 141 kts | 90° |
| 2026-04-23 21:08 | 26.07687 | -80.15187 | 15 ft | 59 kts | 90° |
| 2026-04-23 21:08 | 26.07680 | -80.14824 | 19 ft | 40 kts | 94° |
| 2026-04-23 21:08 | 26.07641 | -80.14629 | 20 ft | 14 kts | 112° |
| 2026-04-23 21:09 | 26.07616 | -80.14567 | 18 ft | 0 kts | 117° |
| 2026-04-23 21:09 | 26.07613 | -80.14561 | 18 ft | 4 kts | 119° |
| 2026-04-23 21:09 | 26.07584 | -80.14524 | 17 ft | 9 kts | 142° |
| 2026-04-23 21:10 | 26.07513 | -80.14514 | 16 ft | 12 kts | 198° |
| 2026-04-23 21:10 | 26.07488 | -80.14604 | 16 ft | 14 kts | 270° |
| 2026-04-23 21:10 | 26.07489 | -80.14720 | 16 ft | 16 kts | 271° |
| 2026-04-23 21:10 | 26.07490 | -80.14836 | 16 ft | 14 kts | 269° |
| 2026-04-23 21:11 | 26.07452 | -80.14936 | 16 ft | 14 kts | 223° |
| 2026-04-23 21:11 | 26.07385 | -80.14923 | 16 ft | 9 kts | 124° |
| 2026-04-23 21:11 | 26.07360 | -80.14871 | 16 ft | 9 kts | 128° |
| 2026-04-23 21:11 | 26.07295 | -80.14854 | 16 ft | 11 kts | 182° |
| 2026-04-23 21:12 | 26.07208 | -80.14854 | 16 ft | 13 kts | 179° |
| 2026-04-23 21:12 | 26.07138 | -80.14855 | 16 ft | 8 kts | 182° |
| 2026-04-23 21:12 | 26.07080 | -80.14850 | 16 ft | 7 kts | 159° |
| 2026-04-23 21:12 | 26.07041 | -80.14812 | 16 ft | 7 kts | 134° |
| 2026-04-23 21:13 | 26.07022 | -80.14781 | 16 ft | 5 kts | 92° |
| 2026-04-23 21:13 | 26.07039 | -80.14740 | 16 ft | 3 kts | 57° |
| 2026-04-23 21:13 | 26.07053 | -80.14717 | 17 ft | 4 kts | 57° |
| 2026-04-23 21:13 | 26.07057 | -80.14710 | 16 ft | 0 kts | 56° |